sensor_id;sensor_type;location;lat;lon;timestamp;temperature;humidity
70107;DHT22;57473;37.508;15.080;2022-09-14T00:01:34;24.30;60.30
70107;DHT22;57473;37.508;15.080;2022-09-14T00:04:05;24.30;60.50
70107;DHT22;57473;37.508;15.080;2022-09-14T00:06:32;24.30;60.60
70107;DHT22;57473;37.508;15.080;2022-09-14T00:09:00;24.30;60.70
70107;DHT22;57473;37.508;15.080;2022-09-14T00:11:30;24.20;60.70
70107;DHT22;57473;37.508;15.080;2022-09-14T00:13:59;24.20;60.70
70107;DHT22;57473;37.508;15.080;2022-09-14T00:16:29;24.20;60.70
70107;DHT22;57473;37.508;15.080;2022-09-14T00:19:00;24.20;60.90
70107;DHT22;57473;37.508;15.080;2022-09-14T00:21:33;24.20;60.70
70107;DHT22;57473;37.508;15.080;2022-09-14T00:24:01;24.20;60.80
70107;DHT22;57473;37.508;15.080;2022-09-14T00:26:29;24.20;61.00
70107;DHT22;57473;37.508;15.080;2022-09-14T00:28:58;24.10;61.10
70107;DHT22;57473;37.508;15.080;2022-09-14T00:31:26;24.20;61.00
70107;DHT22;57473;37.508;15.080;2022-09-14T00:33:53;24.20;60.90
70107;DHT22;57473;37.508;15.080;2022-09-14T00:36:26;24.20;61.10
70107;DHT22;57473;37.508;15.080;2022-09-14T00:38:54;24.10;61.00
70107;DHT22;57473;37.508;15.080;2022-09-14T00:41:26;24.10;61.10
70107;DHT22;57473;37.508;15.080;2022-09-14T00:43:58;24.10;61.20
70107;DHT22;57473;37.508;15.080;2022-09-14T00:46:37;24.00;61.20
70107;DHT22;57473;37.508;15.080;2022-09-14T00:49:11;24.00;61.30
70107;DHT22;57473;37.508;15.080;2022-09-14T00:54:40;24.00;61.40
70107;DHT22;57473;37.508;15.080;2022-09-14T00:57:08;23.90;61.70
70107;DHT22;57473;37.508;15.080;2022-09-14T00:59:37;23.90;61.80
70107;DHT22;57473;37.508;15.080;2022-09-14T01:02:07;23.90;61.80
70107;DHT22;57473;37.508;15.080;2022-09-14T01:04:37;23.90;61.90
70107;DHT22;57473;37.508;15.080;2022-09-14T01:15:47;23.80;62.30
70107;DHT22;57473;37.508;15.080;2022-09-14T01:18:41;23.80;62.40
70107;DHT22;57473;37.508;15.080;2022-09-14T01:21:14;23.70;62.50
70107;DHT22;57473;37.508;15.080;2022-09-14T01:23:47;23.70;62.30
70107;DHT22;57473;37.508;15.080;2022-09-14T01:26:33;23.70;62.60
70107;DHT22;57473;37.508;15.080;2022-09-14T01:29:21;23.70;62.70
70107;DHT22;57473;37.508;15.080;2022-09-14T01:31:51;23.70;62.70
70107;DHT22;57473;37.508;15.080;2022-09-14T01:34:29;23.70;62.70
70107;DHT22;57473;37.508;15.080;2022-09-14T01:37:05;23.70;62.80
70107;DHT22;57473;37.508;15.080;2022-09-14T01:39:46;23.60;63.00
70107;DHT22;57473;37.508;15.080;2022-09-14T01:42:14;23.60;63.20
70107;DHT22;57473;37.508;15.080;2022-09-14T01:44:47;23.60;63.00
70107;DHT22;57473;37.508;15.080;2022-09-14T01:47:21;23.60;63.10
70107;DHT22;57473;37.508;15.080;2022-09-14T01:49:56;23.60;63.20
70107;DHT22;57473;37.508;15.080;2022-09-14T01:52:33;23.60;63.30
70107;DHT22;57473;37.508;15.080;2022-09-14T01:55:09;23.60;63.20
70107;DHT22;57473;37.508;15.080;2022-09-14T01:58:06;23.70;63.10
70107;DHT22;57473;37.508;15.080;2022-09-14T02:00:31;23.70;63.00
70107;DHT22;57473;37.508;15.080;2022-09-14T02:03:16;23.60;63.20
70107;DHT22;57473;37.508;15.080;2022-09-14T02:08:15;23.50;63.20
70107;DHT22;57473;37.508;15.080;2022-09-14T02:10:42;23.50;63.40
70107;DHT22;57473;37.508;15.080;2022-09-14T02:13:10;23.50;63.60
70107;DHT22;57473;37.508;15.080;2022-09-14T02:15:38;23.50;63.50
70107;DHT22;57473;37.508;15.080;2022-09-14T02:18:05;23.50;63.70
70107;DHT22;57473;37.508;15.080;2022-09-14T02:20:54;23.50;63.60
70107;DHT22;57473;37.508;15.080;2022-09-14T02:23:25;23.50;63.60
70107;DHT22;57473;37.508;15.080;2022-09-14T02:25:52;23.50;63.80
70107;DHT22;57473;37.508;15.080;2022-09-14T02:28:20;23.40;63.60
70107;DHT22;57473;37.508;15.080;2022-09-14T02:33:48;23.40;63.90
70107;DHT22;57473;37.508;15.080;2022-09-14T02:42:21;23.30;63.90
70107;DHT22;57473;37.508;15.080;2022-09-14T02:45:01;23.30;63.90
70107;DHT22;57473;37.508;15.080;2022-09-14T02:47:55;23.30;63.80
70107;DHT22;57473;37.508;15.080;2022-09-14T02:50:47;23.30;63.70
70107;DHT22;57473;37.508;15.080;2022-09-14T02:53:45;23.30;63.80
70107;DHT22;57473;37.508;15.080;2022-09-14T02:56:15;23.20;64.00
70107;DHT22;57473;37.508;15.080;2022-09-14T02:58:44;23.20;64.20
70107;DHT22;57473;37.508;15.080;2022-09-14T03:01:18;23.20;64.20
70107;DHT22;57473;37.508;15.080;2022-09-14T03:03:46;23.10;64.20
70107;DHT22;57473;37.508;15.080;2022-09-14T03:06:13;23.10;64.40
70107;DHT22;57473;37.508;15.080;2022-09-14T03:08:41;23.10;64.60
70107;DHT22;57473;37.508;15.080;2022-09-14T03:11:09;23.10;64.50
70107;DHT22;57473;37.508;15.080;2022-09-14T03:13:36;23.00;64.50
70107;DHT22;57473;37.508;15.080;2022-09-14T03:16:05;23.00;64.40
70107;DHT22;57473;37.508;15.080;2022-09-14T03:18:33;23.00;64.50
70107;DHT22;57473;37.508;15.080;2022-09-14T03:21:02;23.00;64.50
70107;DHT22;57473;37.508;15.080;2022-09-14T03:23:35;23.00;64.70
70107;DHT22;57473;37.508;15.080;2022-09-14T03:26:06;23.00;65.00
70107;DHT22;57473;37.508;15.080;2022-09-14T03:28:34;23.00;64.80
70107;DHT22;57473;37.508;15.080;2022-09-14T03:31:04;23.00;65.00
70107;DHT22;57473;37.508;15.080;2022-09-14T03:33:32;23.00;64.80
70107;DHT22;57473;37.508;15.080;2022-09-14T03:36:00;23.00;64.90
70107;DHT22;57473;37.508;15.080;2022-09-14T03:38:27;23.00;65.10
70107;DHT22;57473;37.508;15.080;2022-09-14T03:40:56;22.90;65.10
70107;DHT22;57473;37.508;15.080;2022-09-14T03:43:24;22.90;65.20
70107;DHT22;57473;37.508;15.080;2022-09-14T03:45:52;22.90;65.30
70107;DHT22;57473;37.508;15.080;2022-09-14T03:48:20;22.90;65.10
70107;DHT22;57473;37.508;15.080;2022-09-14T03:50:48;22.90;65.10
70107;DHT22;57473;37.508;15.080;2022-09-14T03:53:15;22.90;65.20
70107;DHT22;57473;37.508;15.080;2022-09-14T03:55:42;22.90;65.40
70107;DHT22;57473;37.508;15.080;2022-09-14T03:58:09;22.90;65.50
70107;DHT22;57473;37.508;15.080;2022-09-14T04:00:39;22.80;65.60
70107;DHT22;57473;37.508;15.080;2022-09-14T04:03:06;22.80;65.80
70107;DHT22;57473;37.508;15.080;2022-09-14T04:05:33;22.80;65.90
70107;DHT22;57473;37.508;15.080;2022-09-14T04:08:00;22.80;66.00
70107;DHT22;57473;37.508;15.080;2022-09-14T04:10:27;22.70;66.10
70107;DHT22;57473;37.508;15.080;2022-09-14T04:12:55;22.80;66.00
70107;DHT22;57473;37.508;15.080;2022-09-14T04:15:22;22.70;66.20
70107;DHT22;57473;37.508;15.080;2022-09-14T04:17:49;22.70;66.20
70107;DHT22;57473;37.508;15.080;2022-09-14T04:20:17;22.60;66.40
70107;DHT22;57473;37.508;15.080;2022-09-14T04:22:44;22.60;66.30
70107;DHT22;57473;37.508;15.080;2022-09-14T04:25:12;22.60;66.40
70107;DHT22;57473;37.508;15.080;2022-09-14T04:27:39;22.60;66.40
70107;DHT22;57473;37.508;15.080;2022-09-14T04:30:06;22.60;66.30
70107;DHT22;57473;37.508;15.080;2022-09-14T04:32:33;22.60;66.20
70107;DHT22;57473;37.508;15.080;2022-09-14T04:35:01;22.60;66.30
70107;DHT22;57473;37.508;15.080;2022-09-14T04:37:30;22.60;66.20
70107;DHT22;57473;37.508;15.080;2022-09-14T04:39:58;22.60;66.30
70107;DHT22;57473;37.508;15.080;2022-09-14T04:42:25;22.50;66.30
70107;DHT22;57473;37.508;15.080;2022-09-14T04:44:52;22.60;66.20
70107;DHT22;57473;37.508;15.080;2022-09-14T04:47:20;22.60;66.10
70107;DHT22;57473;37.508;15.080;2022-09-14T04:49:47;22.60;66.00
70107;DHT22;57473;37.508;15.080;2022-09-14T04:52:14;22.60;65.90
70107;DHT22;57473;37.508;15.080;2022-09-14T04:54:42;22.60;65.90
70107;DHT22;57473;37.508;15.080;2022-09-14T04:57:09;22.60;66.00
70107;DHT22;57473;37.508;15.080;2022-09-14T04:59:36;22.60;66.00
70107;DHT22;57473;37.508;15.080;2022-09-14T05:02:04;22.60;66.00
70107;DHT22;57473;37.508;15.080;2022-09-14T05:04:31;22.60;66.30
70107;DHT22;57473;37.508;15.080;2022-09-14T05:06:58;22.60;66.30
70107;DHT22;57473;37.508;15.080;2022-09-14T05:09:25;22.60;66.40
70107;DHT22;57473;37.508;15.080;2022-09-14T05:11:53;22.70;66.10
70107;DHT22;57473;37.508;15.080;2022-09-14T05:14:20;22.70;66.10
70107;DHT22;57473;37.508;15.080;2022-09-14T05:16:47;22.70;66.50
70107;DHT22;57473;37.508;15.080;2022-09-14T05:19:15;22.80;66.10
70107;DHT22;57473;37.508;15.080;2022-09-14T05:21:44;22.80;66.50
70107;DHT22;57473;37.508;15.080;2022-09-14T05:24:16;22.80;66.70
70107;DHT22;57473;37.508;15.080;2022-09-14T05:26:44;22.90;66.60
70107;DHT22;57473;37.508;15.080;2022-09-14T05:29:17;22.90;66.30
70107;DHT22;57473;37.508;15.080;2022-09-14T05:31:45;23.00;66.30
70107;DHT22;57473;37.508;15.080;2022-09-14T05:34:13;23.10;65.90
70107;DHT22;57473;37.508;15.080;2022-09-14T05:36:40;23.10;65.80
70107;DHT22;57473;37.508;15.080;2022-09-14T05:39:08;23.20;66.10
70107;DHT22;57473;37.508;15.080;2022-09-14T05:41:35;23.30;66.60
70107;DHT22;57473;37.508;15.080;2022-09-14T05:44:03;23.30;66.10
70107;DHT22;57473;37.508;15.080;2022-09-14T05:46:33;23.40;65.50
70107;DHT22;57473;37.508;15.080;2022-09-14T05:49:01;23.60;65.00
70107;DHT22;57473;37.508;15.080;2022-09-14T05:51:29;23.70;65.30
70107;DHT22;57473;37.508;15.080;2022-09-14T05:53:57;23.80;64.30
70107;DHT22;57473;37.508;15.080;2022-09-14T05:56:27;23.90;63.80
70107;DHT22;57473;37.508;15.080;2022-09-14T05:58:55;24.00;64.10
70107;DHT22;57473;37.508;15.080;2022-09-14T06:01:24;24.10;63.40
70107;DHT22;57473;37.508;15.080;2022-09-14T06:03:53;24.20;62.50
70107;DHT22;57473;37.508;15.080;2022-09-14T06:06:21;24.30;61.90
70107;DHT22;57473;37.508;15.080;2022-09-14T06:08:50;24.30;61.30
70107;DHT22;57473;37.508;15.080;2022-09-14T06:11:22;24.40;60.90
70107;DHT22;57473;37.508;15.080;2022-09-14T06:13:50;24.50;60.60
70107;DHT22;57473;37.508;15.080;2022-09-14T06:16:19;24.50;60.50
70107;DHT22;57473;37.508;15.080;2022-09-14T06:18:47;24.60;60.30
70107;DHT22;57473;37.508;15.080;2022-09-14T06:21:18;24.80;60.40
70107;DHT22;57473;37.508;15.080;2022-09-14T06:23:47;24.90;60.10
70107;DHT22;57473;37.508;15.080;2022-09-14T06:26:15;25.10;59.60
70107;DHT22;57473;37.508;15.080;2022-09-14T06:28:42;25.20;59.40
70107;DHT22;57473;37.508;15.080;2022-09-14T06:31:17;25.40;59.10
70107;DHT22;57473;37.508;15.080;2022-09-14T06:33:49;25.50;59.00
70107;DHT22;57473;37.508;15.080;2022-09-14T06:36:23;25.60;58.60
70107;DHT22;57473;37.508;15.080;2022-09-14T06:38:52;25.70;58.40
70107;DHT22;57473;37.508;15.080;2022-09-14T06:41:25;25.80;58.10
70107;DHT22;57473;37.508;15.080;2022-09-14T06:43:56;25.80;57.40
70107;DHT22;57473;37.508;15.080;2022-09-14T06:46:26;25.90;57.40
70107;DHT22;57473;37.508;15.080;2022-09-14T06:48:55;25.90;57.10
70107;DHT22;57473;37.508;15.080;2022-09-14T06:51:27;25.90;57.40
70107;DHT22;57473;37.508;15.080;2022-09-14T06:53:56;25.90;57.50
70107;DHT22;57473;37.508;15.080;2022-09-14T06:56:27;25.90;57.70
70107;DHT22;57473;37.508;15.080;2022-09-14T06:58:56;26.00;58.00
70107;DHT22;57473;37.508;15.080;2022-09-14T07:01:24;26.10;57.50
70107;DHT22;57473;37.508;15.080;2022-09-14T07:03:52;26.20;57.40
70107;DHT22;57473;37.508;15.080;2022-09-14T07:06:21;26.40;57.60
70107;DHT22;57473;37.508;15.080;2022-09-14T07:08:50;26.60;58.00
70107;DHT22;57473;37.508;15.080;2022-09-14T07:11:20;26.70;58.30
70107;DHT22;57473;37.508;15.080;2022-09-14T07:13:47;26.80;57.90
70107;DHT22;57473;37.508;15.080;2022-09-14T07:16:14;26.70;56.10
70107;DHT22;57473;37.508;15.080;2022-09-14T07:18:42;26.70;55.30
70107;DHT22;57473;37.508;15.080;2022-09-14T07:21:17;26.70;55.00
70107;DHT22;57473;37.508;15.080;2022-09-14T07:23:47;26.80;55.10
70107;DHT22;57473;37.508;15.080;2022-09-14T07:26:21;26.90;54.00
70107;DHT22;57473;37.508;15.080;2022-09-14T07:28:53;27.10;55.00
70107;DHT22;57473;37.508;15.080;2022-09-14T07:31:23;27.20;54.60
70107;DHT22;57473;37.508;15.080;2022-09-14T07:33:55;27.30;53.50
70107;DHT22;57473;37.508;15.080;2022-09-14T07:36:24;27.40;52.80
70107;DHT22;57473;37.508;15.080;2022-09-14T07:38:52;27.50;52.20
70107;DHT22;57473;37.508;15.080;2022-09-14T07:41:22;27.60;51.70
70107;DHT22;57473;37.508;15.080;2022-09-14T07:43:51;27.70;50.60
70107;DHT22;57473;37.508;15.080;2022-09-14T07:46:20;27.90;50.00
70107;DHT22;57473;37.508;15.080;2022-09-14T07:48:49;28.00;48.50
70107;DHT22;57473;37.508;15.080;2022-09-14T07:51:20;28.10;46.40
70107;DHT22;57473;37.508;15.080;2022-09-14T07:53:48;28.10;46.00
70107;DHT22;57473;37.508;15.080;2022-09-14T07:56:15;28.20;45.80
70107;DHT22;57473;37.508;15.080;2022-09-14T07:58:43;28.30;45.30
70107;DHT22;57473;37.508;15.080;2022-09-14T08:01:15;28.30;45.40
70107;DHT22;57473;37.508;15.080;2022-09-14T08:03:45;28.50;45.00
70107;DHT22;57473;37.508;15.080;2022-09-14T08:06:18;28.50;45.10
70107;DHT22;57473;37.508;15.080;2022-09-14T08:08:49;28.50;44.90
70107;DHT22;57473;37.508;15.080;2022-09-14T08:13:49;28.70;44.50
70107;DHT22;57473;37.508;15.080;2022-09-14T08:16:17;28.80;44.50
70107;DHT22;57473;37.508;15.080;2022-09-14T08:18:45;28.90;44.30
70107;DHT22;57473;37.508;15.080;2022-09-14T08:21:15;28.80;44.10
70107;DHT22;57473;37.508;15.080;2022-09-14T08:23:43;28.80;44.10
70107;DHT22;57473;37.508;15.080;2022-09-14T08:26:15;28.90;43.80
70107;DHT22;57473;37.508;15.080;2022-09-14T08:28:43;28.80;44.40
70107;DHT22;57473;37.508;15.080;2022-09-14T08:31:13;28.90;44.00
70107;DHT22;57473;37.508;15.080;2022-09-14T08:33:46;29.10;44.10
70107;DHT22;57473;37.508;15.080;2022-09-14T08:36:15;29.20;44.00
70107;DHT22;57473;37.508;15.080;2022-09-14T08:38:43;29.30;44.10
70107;DHT22;57473;37.508;15.080;2022-09-14T08:41:37;29.50;44.10
70107;DHT22;57473;37.508;15.080;2022-09-14T08:47:16;29.60;43.60
70107;DHT22;57473;37.508;15.080;2022-09-14T09:01:01;29.90;42.20
70107;DHT22;57473;37.508;15.080;2022-09-14T09:06:17;30.10;41.80
70107;DHT22;57473;37.508;15.080;2022-09-14T09:11:39;30.30;41.40
70107;DHT22;57473;37.508;15.080;2022-09-14T09:16:55;30.50;40.10
70107;DHT22;57473;37.508;15.080;2022-09-14T09:19:31;30.50;40.60
70107;DHT22;57473;37.508;15.080;2022-09-14T09:22:02;30.50;40.80
70107;DHT22;57473;37.508;15.080;2022-09-14T09:24:38;30.50;41.70
70107;DHT22;57473;37.508;15.080;2022-09-14T09:27:13;30.50;42.30
70107;DHT22;57473;37.508;15.080;2022-09-14T09:29:42;30.60;42.10
70107;DHT22;57473;37.508;15.080;2022-09-14T09:32:20;30.70;41.60
70107;DHT22;57473;37.508;15.080;2022-09-14T09:35:00;31.00;39.50
70107;DHT22;57473;37.508;15.080;2022-09-14T09:37:50;31.00;41.50
70107;DHT22;57473;37.508;15.080;2022-09-14T09:40:30;31.00;41.80
70107;DHT22;57473;37.508;15.080;2022-09-14T09:45:58;31.10;38.40
70107;DHT22;57473;37.508;15.080;2022-09-14T09:51:12;31.30;38.50
70107;DHT22;57473;37.508;15.080;2022-09-14T09:56:31;31.40;38.30
70107;DHT22;57473;37.508;15.080;2022-09-14T09:58:59;31.50;38.40
70107;DHT22;57473;37.508;15.080;2022-09-14T10:01:32;31.50;38.90
70107;DHT22;57473;37.508;15.080;2022-09-14T10:04:04;31.40;39.10
70107;DHT22;57473;37.508;15.080;2022-09-14T10:06:40;31.60;39.50
70107;DHT22;57473;37.508;15.080;2022-09-14T10:09:13;31.60;38.80
70107;DHT22;57473;37.508;15.080;2022-09-14T10:11:40;31.70;38.10
70107;DHT22;57473;37.508;15.080;2022-09-14T10:16:54;31.80;37.40
70107;DHT22;57473;37.508;15.080;2022-09-14T10:19:30;31.90;36.00
70107;DHT22;57473;37.508;15.080;2022-09-14T10:25:01;31.80;36.40
70107;DHT22;57473;37.508;15.080;2022-09-14T10:27:38;31.60;36.70
70107;DHT22;57473;37.508;15.080;2022-09-14T10:30:14;31.70;36.80
70107;DHT22;57473;37.508;15.080;2022-09-14T10:33:02;31.60;36.40
70107;DHT22;57473;37.508;15.080;2022-09-14T10:50:39;32.10;36.60
70107;DHT22;57473;37.508;15.080;2022-09-14T10:56:07;32.60;36.10
70107;DHT22;57473;37.508;15.080;2022-09-14T11:01:18;33.10;36.00
70107;DHT22;57473;37.508;15.080;2022-09-14T11:04:15;33.70;35.20
70107;DHT22;57473;37.508;15.080;2022-09-14T11:07:16;34.20;35.20
70107;DHT22;57473;37.508;15.080;2022-09-14T11:09:57;35.10;33.70
70107;DHT22;57473;37.508;15.080;2022-09-14T11:18:24;36.20;31.90
70107;DHT22;57473;37.508;15.080;2022-09-14T11:23:51;36.60;31.20
70107;DHT22;57473;37.508;15.080;2022-09-14T11:29:06;37.60;30.50
70107;DHT22;57473;37.508;15.080;2022-09-14T11:31:47;37.80;30.70
70107;DHT22;57473;37.508;15.080;2022-09-14T11:34:44;37.60;35.50
70107;DHT22;57473;37.508;15.080;2022-09-14T11:37:16;36.30;39.50
70107;DHT22;57473;37.508;15.080;2022-09-14T11:39:59;35.90;40.00
70107;DHT22;57473;37.508;15.080;2022-09-14T11:42:44;35.50;41.60
70107;DHT22;57473;37.508;15.080;2022-09-14T11:45:25;36.40;40.50
70107;DHT22;57473;37.508;15.080;2022-09-14T11:48:00;36.60;40.10
70107;DHT22;57473;37.508;15.080;2022-09-14T11:50:30;36.30;39.10
70107;DHT22;57473;37.508;15.080;2022-09-14T11:55:30;36.00;40.90
70107;DHT22;57473;37.508;15.080;2022-09-14T11:57:58;35.70;40.90
70107;DHT22;57473;37.508;15.080;2022-09-14T12:00:59;36.00;41.20
70107;DHT22;57473;37.508;15.080;2022-09-14T12:11:55;34.40;44.50
70107;DHT22;57473;37.508;15.080;2022-09-14T12:23:24;34.60;45.20
70107;DHT22;57473;37.508;15.080;2022-09-14T12:36:09;35.10;44.20
70107;DHT22;57473;37.508;15.080;2022-09-14T12:51:42;36.10;41.90
70107;DHT22;57473;37.508;15.080;2022-09-14T12:54:21;35.90;44.40
70107;DHT22;57473;37.508;15.080;2022-09-14T13:04:37;36.00;45.40
70107;DHT22;57473;37.508;15.080;2022-09-14T13:07:12;35.20;47.60
70107;DHT22;57473;37.508;15.080;2022-09-14T13:09:49;35.40;46.70
70107;DHT22;57473;37.508;15.080;2022-09-14T13:14:59;35.90;46.60
70107;DHT22;57473;37.508;15.080;2022-09-14T13:17:28;36.60;45.00
70107;DHT22;57473;37.508;15.080;2022-09-14T13:19:58;36.40;46.40
70107;DHT22;57473;37.508;15.080;2022-09-14T13:22:30;36.20;46.30
70107;DHT22;57473;37.508;15.080;2022-09-14T13:24:59;36.30;46.90
70107;DHT22;57473;37.508;15.080;2022-09-14T13:27:32;35.60;48.50
70107;DHT22;57473;37.508;15.080;2022-09-14T13:32:47;35.40;48.90
70107;DHT22;57473;37.508;15.080;2022-09-14T13:35:17;35.00;50.60
70107;DHT22;57473;37.508;15.080;2022-09-14T13:37:46;34.60;51.30
70107;DHT22;57473;37.508;15.080;2022-09-14T13:40:14;35.10;50.30
70107;DHT22;57473;37.508;15.080;2022-09-14T13:42:41;35.20;50.20
70107;DHT22;57473;37.508;15.080;2022-09-14T13:45:11;35.60;49.50
70107;DHT22;57473;37.508;15.080;2022-09-14T13:47:39;34.90;50.80
70107;DHT22;57473;37.508;15.080;2022-09-14T13:50:07;34.20;52.70
70107;DHT22;57473;37.508;15.080;2022-09-14T13:52:35;33.30;55.30
70107;DHT22;57473;37.508;15.080;2022-09-14T13:55:26;32.70;57.00
70107;DHT22;57473;37.508;15.080;2022-09-14T13:58:19;32.00;59.10
70107;DHT22;57473;37.508;15.080;2022-09-14T14:03:31;31.20;62.50
70107;DHT22;57473;37.508;15.080;2022-09-14T14:06:24;30.80;63.90
70107;DHT22;57473;37.508;15.080;2022-09-14T14:11:29;30.50;65.50
70107;DHT22;57473;37.508;15.080;2022-09-14T14:14:10;30.50;65.60
70107;DHT22;57473;37.508;15.080;2022-09-14T14:16:38;30.40;65.60
70107;DHT22;57473;37.508;15.080;2022-09-14T14:19:29;30.40;66.30
70107;DHT22;57473;37.508;15.080;2022-09-14T14:22:18;30.40;66.10
70107;DHT22;57473;37.508;15.080;2022-09-14T14:24:48;30.30;66.10
70107;DHT22;57473;37.508;15.080;2022-09-14T14:27:45;30.30;66.00
70107;DHT22;57473;37.508;15.080;2022-09-14T14:30:15;30.40;65.90
70107;DHT22;57473;37.508;15.080;2022-09-14T14:32:48;30.40;65.40
70107;DHT22;57473;37.508;15.080;2022-09-14T14:35:18;30.20;65.70
70107;DHT22;57473;37.508;15.080;2022-09-14T14:37:46;30.20;65.30
70107;DHT22;57473;37.508;15.080;2022-09-14T14:40:15;30.20;64.50
70107;DHT22;57473;37.508;15.080;2022-09-14T14:42:43;30.10;64.40
70107;DHT22;57473;37.508;15.080;2022-09-14T14:45:16;30.00;63.70
70107;DHT22;57473;37.508;15.080;2022-09-14T14:47:46;29.90;64.30
70107;DHT22;57473;37.508;15.080;2022-09-14T14:50:19;29.80;65.00
70107;DHT22;57473;37.508;15.080;2022-09-14T14:52:48;29.90;64.60
70107;DHT22;57473;37.508;15.080;2022-09-14T14:55:18;30.00;62.40
70107;DHT22;57473;37.508;15.080;2022-09-14T14:57:47;30.00;63.20
70107;DHT22;57473;37.508;15.080;2022-09-14T15:00:18;30.00;63.50
70107;DHT22;57473;37.508;15.080;2022-09-14T15:02:46;30.00;63.90
70107;DHT22;57473;37.508;15.080;2022-09-14T15:05:14;29.90;64.80
70107;DHT22;57473;37.508;15.080;2022-09-14T15:07:41;29.90;63.60
70107;DHT22;57473;37.508;15.080;2022-09-14T15:10:13;29.90;63.60
70107;DHT22;57473;37.508;15.080;2022-09-14T15:12:41;30.00;64.00
70107;DHT22;57473;37.508;15.080;2022-09-14T15:15:24;29.90;64.00
70107;DHT22;57473;37.508;15.080;2022-09-14T15:17:52;29.80;64.20
70107;DHT22;57473;37.508;15.080;2022-09-14T15:20:20;29.90;63.70
70107;DHT22;57473;37.508;15.080;2022-09-14T15:22:48;29.90;63.30
70107;DHT22;57473;37.508;15.080;2022-09-14T15:25:16;29.90;62.40
70107;DHT22;57473;37.508;15.080;2022-09-14T15:27:43;29.90;63.20
70107;DHT22;57473;37.508;15.080;2022-09-14T15:30:12;29.90;63.00
70107;DHT22;57473;37.508;15.080;2022-09-14T15:32:39;29.80;62.90
70107;DHT22;57473;37.508;15.080;2022-09-14T15:35:09;29.80;62.60
70107;DHT22;57473;37.508;15.080;2022-09-14T15:37:37;29.80;62.50
70107;DHT22;57473;37.508;15.080;2022-09-14T15:40:04;29.80;62.30
70107;DHT22;57473;37.508;15.080;2022-09-14T15:42:32;29.80;61.70
70107;DHT22;57473;37.508;15.080;2022-09-14T15:44:59;29.80;62.00
70107;DHT22;57473;37.508;15.080;2022-09-14T15:47:26;29.80;61.50
70107;DHT22;57473;37.508;15.080;2022-09-14T15:49:57;29.80;62.00
70107;DHT22;57473;37.508;15.080;2022-09-14T15:52:26;29.80;61.70
70107;DHT22;57473;37.508;15.080;2022-09-14T15:54:54;29.90;61.20
70107;DHT22;57473;37.508;15.080;2022-09-14T15:57:21;29.80;61.30
70107;DHT22;57473;37.508;15.080;2022-09-14T15:59:48;29.90;61.10
70107;DHT22;57473;37.508;15.080;2022-09-14T16:02:15;29.90;60.90
70107;DHT22;57473;37.508;15.080;2022-09-14T16:04:46;29.80;61.10
70107;DHT22;57473;37.508;15.080;2022-09-14T16:07:14;29.80;61.50
70107;DHT22;57473;37.508;15.080;2022-09-14T16:09:41;29.70;61.90
70107;DHT22;57473;37.508;15.080;2022-09-14T16:12:11;29.70;61.60
70107;DHT22;57473;37.508;15.080;2022-09-14T16:14:38;29.70;61.40
70107;DHT22;57473;37.508;15.080;2022-09-14T16:17:06;29.60;61.40
70107;DHT22;57473;37.508;15.080;2022-09-14T16:19:34;29.50;61.30
70107;DHT22;57473;37.508;15.080;2022-09-14T16:22:02;29.50;61.30
70107;DHT22;57473;37.508;15.080;2022-09-14T16:24:30;29.50;61.60
70107;DHT22;57473;37.508;15.080;2022-09-14T16:26:58;29.50;61.90
70107;DHT22;57473;37.508;15.080;2022-09-14T16:29:26;29.50;62.00
70107;DHT22;57473;37.508;15.080;2022-09-14T16:31:53;29.50;61.80
70107;DHT22;57473;37.508;15.080;2022-09-14T16:34:24;29.50;61.70
70107;DHT22;57473;37.508;15.080;2022-09-14T16:36:52;29.50;61.20
70107;DHT22;57473;37.508;15.080;2022-09-14T16:39:25;29.50;61.20
70107;DHT22;57473;37.508;15.080;2022-09-14T16:41:52;29.40;61.30
70107;DHT22;57473;37.508;15.080;2022-09-14T16:44:24;29.40;61.70
70107;DHT22;57473;37.508;15.080;2022-09-14T16:46:53;29.30;61.80
70107;DHT22;57473;37.508;15.080;2022-09-14T16:49:20;29.30;62.00
70107;DHT22;57473;37.508;15.080;2022-09-14T16:51:54;29.30;62.00
70107;DHT22;57473;37.508;15.080;2022-09-14T16:54:23;29.20;62.10
70107;DHT22;57473;37.508;15.080;2022-09-14T16:56:51;29.10;62.30
70107;DHT22;57473;37.508;15.080;2022-09-14T16:59:23;29.00;62.60
70107;DHT22;57473;37.508;15.080;2022-09-14T17:01:53;29.00;62.80
70107;DHT22;57473;37.508;15.080;2022-09-14T17:04:22;28.90;63.30
70107;DHT22;57473;37.508;15.080;2022-09-14T17:06:50;28.80;63.80
70107;DHT22;57473;37.508;15.080;2022-09-14T17:09:25;28.80;64.40
70107;DHT22;57473;37.508;15.080;2022-09-14T17:11:53;28.70;64.50
70107;DHT22;57473;37.508;15.080;2022-09-14T17:14:25;28.70;64.80
70107;DHT22;57473;37.508;15.080;2022-09-14T17:16:53;28.60;65.20
70107;DHT22;57473;37.508;15.080;2022-09-14T17:19:21;28.50;65.60
70107;DHT22;57473;37.508;15.080;2022-09-14T17:21:49;28.50;65.40
70107;DHT22;57473;37.508;15.080;2022-09-14T17:24:17;28.40;65.50
70107;DHT22;57473;37.508;15.080;2022-09-14T17:26:45;28.40;65.30
70107;DHT22;57473;37.508;15.080;2022-09-14T17:29:13;28.40;65.30
70107;DHT22;57473;37.508;15.080;2022-09-14T17:31:42;28.30;65.60
70107;DHT22;57473;37.508;15.080;2022-09-14T17:34:11;28.30;65.60
70107;DHT22;57473;37.508;15.080;2022-09-14T17:36:39;28.30;65.70
70107;DHT22;57473;37.508;15.080;2022-09-14T17:39:07;28.20;65.80
70107;DHT22;57473;37.508;15.080;2022-09-14T17:41:39;28.20;65.80
70107;DHT22;57473;37.508;15.080;2022-09-14T17:44:08;28.20;65.60
70107;DHT22;57473;37.508;15.080;2022-09-14T17:46:36;28.20;65.60
70107;DHT22;57473;37.508;15.080;2022-09-14T17:49:16;28.20;65.30
70107;DHT22;57473;37.508;15.080;2022-09-14T17:51:44;28.20;65.10
70107;DHT22;57473;37.508;15.080;2022-09-14T17:54:11;28.30;64.50
70107;DHT22;57473;37.508;15.080;2022-09-14T17:56:39;28.30;64.50
70107;DHT22;57473;37.508;15.080;2022-09-14T17:59:17;28.20;64.70
70107;DHT22;57473;37.508;15.080;2022-09-14T18:01:47;28.20;64.70
70107;DHT22;57473;37.508;15.080;2022-09-14T18:04:15;28.20;64.70
70107;DHT22;57473;37.508;15.080;2022-09-14T18:06:45;28.20;64.90
70107;DHT22;57473;37.508;15.080;2022-09-14T18:09:14;28.10;64.90
70107;DHT22;57473;37.508;15.080;2022-09-14T18:11:42;28.10;65.10
70107;DHT22;57473;37.508;15.080;2022-09-14T18:14:12;28.00;65.20
70107;DHT22;57473;37.508;15.080;2022-09-14T18:16:42;28.00;65.20